MST,Max TemperatureF,Mean TemperatureF,Min TemperatureF,Max Dew PointF,MeanDew PointF,Min DewpointF,Max Humidity, Mean Humidity, Min Humidity, Max Sea Level PressureIn, Mean Sea Level PressureIn, Min Sea Level PressureIn, Max VisibilityMiles, Mean VisibilityMiles, Min VisibilityMiles, Max Wind SpeedMPH, Mean Wind SpeedMPH, Max Gust SpeedMPH,PrecipitationIn, CloudCover, Events, WindDirDegrees
2013-1-1,21,10,-2,10,5,-6,92,81,58,30.34,30.27,30.20,10,7,1,4,0,,0.00,5,Snow,132
2013-1-2,19,7,-5,19,0,-9,100,80,58,30.38,30.33,30.28,10,5,0,6,0,,0.00,3,Fog-Snow,116
2013-1-3,26,10,-7,16,-1,-13,92,75,49,30.41,30.36,30.31,10,8,0,4,0,,0.00,0,Fog-Snow,112
2013-1-4,21,6,-9,12,-2,-15,93,78,50,30.35,30.30,30.23,10,8,0,4,0,,0.00,1,Fog-Snow,150
2013-1-5,23,8,-7,12,0,-13,92,79,50,30.41,30.33,30.25,10,6,0,4,0,,0.00,2,Fog-Snow,105
2013-1-6,26,13,0,16,6,-4,92,81,63,30.24,30.12,30.03,10,9,7,6,0,,0.00,1,,100
2013-1-7,30,15,0,16,8,-6,92,76,47,30.17,30.11,30.07,10,9,4,8,1,,0.00,2,,141
2013-1-8,33,24,15,25,18,12,93,78,51,30.38,30.24,30.13,10,7,4,6,1,,0.00,6,,100
2013-1-9,33,20,8,27,17,5,100,79,60,30.39,30.18,29.89,10,6,0,6,1,,0.00,2,Fog,179
2013-1-10,42,32,21,32,23,18,100,69,39,29.86,29.60,29.45,10,6,1,18,7,25,0.00,6,Snow,154
2013-1-11,23,10,-4,19,9,-6,93,77,63,29.87,29.68,29.50,10,9,2,16,6,22,0.00,7,Snow,175
2013-1-12,19,7,-5,10,1,-9,92,78,54,30.00,29.92,29.87,10,8,1,7,1,,0.00,6,Snow,90
2013-1-13,10,-6,-22,-4,-12,-27,92,76,52,30.11,30.04,29.99,10,8,0,6,1,,0.00,2,Snow,130
2013-1-14,8,-8,-23,0,-13,-29,85,75,48,30.29,30.20,30.11,10,8,1,5,0,,0.00,3,Snow,113
2013-1-15,17,9,1,10,3,-2,92,77,53,30.53,30.42,30.30,10,7,2,8,0,,0.00,7,Snow,247
2013-1-16,21,10,-2,10,4,-6,92,82,63,30.60,30.54,30.50,10,8,3,5,1,,0.00,3,Snow,136
2013-1-17,23,7,-9,12,0,-15,93,81,59,30.59,30.51,30.44,10,9,2,0,0,,0.00,0,Snow,-1
2013-1-18,24,8,-7,14,0,-13,92,81,63,30.47,30.41,30.36,10,6,0,5,0,,0.00,2,Fog-Snow,120
2013-1-19,28,12,-5,16,3,-9,93,80,55,30.52,30.43,30.39,10,7,0,4,0,,0.00,0,Fog,123
2013-1-20,28,10,-7,14,1,-13,93,80,51,30.45,30.40,30.34,10,6,0,5,1,,0.00,1,Fog,123
2013-1-21,32,14,-5,14,3,-9,93,78,47,30.46,30.39,30.33,10,7,3,6,1,,0.00,0,,110
2013-1-22,30,12,-7,14,3,-11,93,78,51,30.41,30.35,30.27,10,8,0,4,0,,0.00,0,Snow,122
2013-1-23,44,22,1,23,11,-2,92,74,36,30.33,30.27,30.21,10,10,7,14,1,17,0.00,0,,196
2013-1-24,41,32,23,36,29,18,100,85,69,30.30,30.24,30.19,10,8,2,12,2,21,0.00,8,,170
2013-1-25,37,34,30,34,32,30,100,94,81,30.29,30.23,30.15,10,5,2,5,1,,0.00,7,,116
2013-1-26,33,30,26,32,30,27,100,97,93,30.14,29.96,29.83,7,3,0,6,0,,0.00,7,Fog-Snow,110
2013-1-27,42,34,26,34,30,25,100,89,53,29.84,29.76,29.65,10,5,0,33,5,43,0.00,8,Snow,179
2013-1-28,28,20,10,25,16,9,93,81,59,29.93,29.87,29.80,10,8,2,12,3,16,0.00,7,Snow,99
2013-1-29,28,16,3,19,13,0,93,81,63,30.11,29.92,29.82,10,7,1,8,2,,0.00,7,Snow,118
2013-1-30,30,22,14,28,21,10,100,89,74,30.20,30.16,30.12,10,4,1,5,1,,0.00,8,Snow,131
2013-1-31,41,32,23,30,26,21,100,87,61,30.33,30.27,30.20,10,6,0,5,1,,0.00,7,Fog-Snow,132